createdAt,value
2023-05-04T00:00:37.005Z,14.90
2023-05-04T00:03:03.997Z,14.90
2023-05-04T00:05:33.262Z,14.90
2023-05-04T00:08:00.240Z,14.90
2023-05-04T00:10:28.169Z,14.90
2023-05-04T00:12:55.158Z,14.90
2023-05-04T00:15:23.226Z,14.90
2023-05-04T00:17:52.021Z,14.90
2023-05-04T00:20:18.985Z,14.90
2023-05-04T00:22:46.098Z,15.00
2023-05-04T00:25:16.760Z,14.80
2023-05-04T00:27:43.795Z,14.90
2023-05-04T00:30:13.695Z,14.80
2023-05-04T00:32:43.809Z,14.80
2023-05-04T00:35:10.998Z,14.80
2023-05-04T00:37:37.971Z,14.80
2023-05-04T00:40:05.400Z,14.80
2023-05-04T00:42:32.444Z,14.70
2023-05-04T00:44:59.564Z,14.70
2023-05-04T00:47:27.115Z,14.60
2023-05-04T00:49:54.142Z,14.60
2023-05-04T00:52:21.142Z,14.60
2023-05-04T00:54:52.127Z,14.50
2023-05-04T00:57:19.504Z,15.30
2023-05-04T00:59:47.877Z,14.50
2023-05-04T01:02:14.996Z,14.40
2023-05-04T01:04:42.009Z,14.40
2023-05-04T01:07:27.493Z,14.40
2023-05-04T01:09:59.865Z,14.40
2023-05-04T01:12:34.874Z,14.30
2023-05-04T01:15:03.244Z,14.30
2023-05-04T01:17:30.324Z,14.30
2023-05-04T01:19:57.320Z,14.30
2023-05-04T01:22:25.519Z,14.20
2023-05-04T01:24:55.042Z,14.30
2023-05-04T01:27:48.510Z,14.90
2023-05-04T01:30:19.161Z,14.20
2023-05-04T01:32:48.195Z,14.10
2023-05-04T01:35:18.938Z,14.00
2023-05-04T01:37:50.294Z,14.10
2023-05-04T01:40:18.379Z,14.10
2023-05-04T01:42:45.281Z,14.10
2023-05-04T01:45:12.606Z,14.10
2023-05-04T01:47:39.581Z,14.10
2023-05-04T01:50:07.152Z,14.00
2023-05-04T01:52:35.235Z,14.00
2023-05-04T01:55:04.513Z,14.00
2023-05-04T01:57:32.911Z,13.90
2023-05-04T01:59:59.830Z,14.40
2023-05-04T02:02:26.784Z,13.80
2023-05-04T02:04:53.946Z,13.80
2023-05-04T02:07:21.114Z,13.80
2023-05-04T02:09:48.147Z,13.80
2023-05-04T02:12:15.240Z,13.80
2023-05-04T02:14:42.600Z,13.70
2023-05-04T02:17:12.661Z,13.80
2023-05-04T02:19:39.894Z,14.30
2023-05-04T02:22:07.211Z,13.60
2023-05-04T02:24:36.134Z,13.90
2023-05-04T02:27:03.443Z,13.70
2023-05-04T02:29:30.874Z,13.60
2023-05-04T02:31:58.031Z,13.70
2023-05-04T02:34:25.219Z,13.70
2023-05-04T02:36:52.216Z,13.90
2023-05-04T02:39:28.910Z,13.70
2023-05-04T02:41:56.103Z,13.70
2023-05-04T02:44:23.221Z,13.40
2023-05-04T02:46:50.284Z,13.70
2023-05-04T02:49:17.554Z,13.70
2023-05-04T02:51:46.606Z,13.70
2023-05-04T02:54:13.834Z,13.60
2023-05-04T02:56:41.175Z,12.70
2023-05-04T02:59:08.190Z,13.70
2023-05-04T03:01:35.587Z,13.60
2023-05-04T03:04:03.551Z,14.20
2023-05-04T03:06:30.885Z,13.60
2023-05-04T03:08:57.957Z,13.00
2023-05-04T03:11:25.072Z,13.00
2023-05-04T03:13:52.747Z,13.60
2023-05-04T03:16:20.903Z,13.50
2023-05-04T03:21:35.634Z,13.30
2023-05-04T03:24:04.839Z,13.40
2023-05-04T03:26:31.851Z,13.50
2023-05-04T03:28:58.977Z,13.50
2023-05-04T03:31:26.345Z,13.50
2023-05-04T03:33:54.931Z,13.50
2023-05-04T03:36:24.691Z,13.50
2023-05-04T03:38:54.612Z,12.20
2023-05-04T03:41:22.142Z,13.40
2023-05-04T03:43:51.368Z,13.50
2023-05-04T03:46:19.332Z,13.50
2023-05-04T03:48:46.603Z,13.50
2023-05-04T03:51:18.841Z,13.50
2023-05-04T03:53:47.849Z,13.40
2023-05-04T03:56:19.329Z,13.40
2023-05-04T03:58:46.985Z,13.40
2023-05-04T04:01:20.198Z,13.50
2023-05-04T04:03:47.394Z,13.40
2023-05-04T04:06:14.549Z,13.40
2023-05-04T04:08:41.748Z,13.60
2023-05-04T04:11:09.022Z,14.40
2023-05-04T04:13:35.973Z,13.40
2023-05-04T04:16:03.215Z,13.40
2023-05-04T04:18:32.670Z,13.50
2023-05-04T04:20:59.703Z,13.50
2023-05-04T04:23:27.230Z,13.50
2023-05-04T04:25:54.300Z,13.50
2023-05-04T04:28:21.649Z,13.40
2023-05-04T04:30:48.903Z,13.30
2023-05-04T04:33:17.304Z,13.30
2023-05-04T04:35:44.718Z,13.40
2023-05-04T04:38:18.033Z,13.20
2023-05-04T04:40:45.378Z,12.20
2023-05-04T04:43:13.298Z,13.40
2023-05-04T04:45:41.442Z,13.50
2023-05-04T04:48:08.592Z,13.40
2023-05-04T04:50:38.278Z,13.70
2023-05-04T04:53:08.132Z,13.50
2023-05-04T04:55:37.356Z,12.10
2023-05-04T04:58:04.533Z,13.70
2023-05-04T05:00:31.674Z,13.80
2023-05-04T05:02:58.781Z,13.80
2023-05-04T05:05:25.934Z,13.70
2023-05-04T05:07:53.381Z,13.80
2023-05-04T05:10:21.553Z,14.00
2023-05-04T05:12:49.824Z,13.90
2023-05-04T05:15:16.895Z,13.90
2023-05-04T05:17:44.094Z,15.00
2023-05-04T05:20:11.823Z,14.00
2023-05-04T05:22:39.163Z,14.00
2023-05-04T05:25:09.626Z,13.90
2023-05-04T05:27:37.216Z,13.80
2023-05-04T05:30:05.835Z,14.00
2023-05-04T05:32:36.561Z,13.90
2023-05-04T05:35:06.408Z,14.20
2023-05-04T05:37:33.549Z,14.30
2023-05-04T05:40:00.637Z,14.40
2023-05-04T05:42:29.261Z,14.40
2023-05-04T05:44:56.450Z,14.30
2023-05-04T05:47:23.542Z,14.40
2023-05-04T05:49:50.706Z,14.30
2023-05-04T05:52:22.148Z,14.40
2023-05-04T05:54:49.238Z,14.30
2023-05-04T05:57:16.207Z,14.70
2023-05-04T05:59:44.856Z,14.80
2023-05-04T06:02:14.833Z,15.20
2023-05-04T06:04:42.730Z,15.30
2023-05-04T06:07:13.797Z,15.60
2023-05-04T06:09:41.047Z,15.70
2023-05-04T06:12:12.455Z,15.80
2023-05-04T06:14:39.669Z,16.00
2023-05-04T06:17:09.515Z,16.10
2023-05-04T06:19:37.829Z,15.80
2023-05-04T06:22:05.287Z,16.40
2023-05-04T06:24:32.958Z,16.30
2023-05-04T06:27:06.444Z,16.30
2023-05-04T06:29:35.636Z,16.20
2023-05-04T06:32:02.802Z,16.50
2023-05-04T06:34:33.897Z,16.50
2023-05-04T06:37:00.861Z,16.20
2023-05-04T06:39:27.752Z,16.40
2023-05-04T06:41:55.595Z,16.40
2023-05-04T06:44:23.010Z,16.50
2023-05-04T06:46:50.026Z,17.50
2023-05-04T06:49:18.631Z,16.80
2023-05-04T06:51:46.188Z,16.90
2023-05-04T06:54:13.337Z,17.00
2023-05-04T06:56:40.720Z,17.10
2023-05-04T06:59:09.081Z,16.80
2023-05-04T07:01:36.029Z,17.40
2023-05-04T07:04:05.117Z,17.20
2023-05-04T07:06:32.510Z,17.30
2023-05-04T07:08:59.864Z,17.40
2023-05-04T07:11:28.068Z,17.70
2023-05-04T07:13:55.423Z,17.60
2023-05-04T07:16:23.854Z,17.50
2023-05-04T07:18:59.575Z,17.40
2023-05-04T07:21:28.985Z,17.60
2023-05-04T07:23:56.733Z,17.70
2023-05-04T07:26:23.727Z,17.70
2023-05-04T07:28:50.764Z,17.90
2023-05-04T07:31:17.743Z,18.10
2023-05-04T07:33:47.460Z,17.80
2023-05-04T07:36:14.533Z,17.60
2023-05-04T07:38:41.647Z,17.90
2023-05-04T07:41:08.581Z,18.20
2023-05-04T07:43:35.470Z,18.60
2023-05-04T07:46:03.306Z,18.60
2023-05-04T07:48:30.609Z,18.30
2023-05-04T07:50:57.793Z,18.40
2023-05-04T07:53:26.482Z,18.60
2023-05-04T07:55:54.437Z,18.70
2023-05-04T07:58:21.379Z,18.80
2023-05-04T08:00:48.383Z,18.70
2023-05-04T08:03:15.671Z,18.70
2023-05-04T08:05:42.604Z,18.90
2023-05-04T08:08:09.591Z,19.00
2023-05-04T08:10:39.052Z,19.10
2023-05-04T08:13:06.390Z,19.20
2023-05-04T08:15:33.431Z,19.50
2023-05-04T08:18:00.436Z,19.40
2023-05-04T08:20:30.161Z,18.90
2023-05-04T08:22:57.062Z,18.70
2023-05-04T08:25:24.206Z,18.30
2023-05-04T08:27:54.347Z,18.40
2023-05-04T08:30:21.373Z,18.40
2023-05-04T08:32:51.183Z,18.40
2023-05-04T08:35:18.257Z,18.50
2023-05-04T08:37:48.178Z,18.80
2023-05-04T08:40:15.328Z,18.40
2023-05-04T08:42:44.346Z,18.60
2023-05-04T08:45:11.376Z,18.80
2023-05-04T08:47:38.449Z,18.70
2023-05-04T08:50:07.570Z,18.60
2023-05-04T08:52:35.434Z,18.70
2023-05-04T08:55:02.355Z,18.80
2023-05-04T08:57:29.845Z,18.90
2023-05-04T08:59:59.159Z,18.70
2023-05-04T09:02:26.734Z,18.40
2023-05-04T09:04:54.044Z,18.70
2023-05-04T09:07:23.997Z,18.70
2023-05-04T09:09:51.806Z,18.70
2023-05-04T09:12:20.937Z,18.60
2023-05-04T09:14:47.923Z,19.10
2023-05-04T09:17:25.665Z,19.20
2023-05-04T09:20:00.197Z,19.60
2023-05-04T09:22:33.589Z,19.50
2023-05-04T09:25:26.522Z,19.50
2023-05-04T09:27:56.446Z,19.50
2023-05-04T09:30:23.563Z,19.70
2023-05-04T09:32:52.807Z,19.60
2023-05-04T09:35:33.592Z,19.40
2023-05-04T09:38:01.333Z,19.30
2023-05-04T09:40:32.650Z,19.00
2023-05-04T09:43:01.150Z,19.30
2023-05-04T09:45:39.109Z,19.50
2023-05-04T09:48:16.334Z,19.50
2023-05-04T09:50:50.076Z,19.60
2023-05-04T09:53:17.131Z,19.80
2023-05-04T09:55:46.068Z,19.80
2023-05-04T09:58:18.988Z,19.60
2023-05-04T10:00:46.593Z,19.80
2023-05-04T10:03:16.228Z,19.80
2023-05-04T10:05:49.163Z,19.90
2023-05-04T10:08:17.304Z,19.70
2023-05-04T10:10:44.562Z,19.60
2023-05-04T10:13:11.633Z,19.50
2023-05-04T10:15:42.394Z,19.50
2023-05-04T10:18:12.376Z,19.80
2023-05-04T10:20:46.069Z,19.90
2023-05-04T10:23:23.971Z,20.10
2023-05-04T10:25:51.028Z,20.60
2023-05-04T10:28:24.191Z,20.50
2023-05-04T10:31:17.904Z,20.30
2023-05-04T10:33:45.644Z,20.10
2023-05-04T10:36:12.696Z,20.20
2023-05-04T10:38:40.139Z,20.40
2023-05-04T10:41:16.631Z,20.60
2023-05-04T10:43:48.779Z,21.10
2023-05-04T10:46:17.092Z,20.90
2023-05-04T10:48:44.151Z,20.80
2023-05-04T10:51:32.657Z,20.80
2023-05-04T10:54:06.057Z,21.20
2023-05-04T10:56:32.920Z,21.40
2023-05-04T10:59:08.864Z,21.40
2023-05-04T11:01:41.977Z,20.90
2023-05-04T11:04:21.621Z,20.70
2023-05-04T11:07:01.984Z,20.60
2023-05-04T11:09:34.921Z,20.40
2023-05-04T11:12:02.456Z,20.20
2023-05-04T11:14:29.505Z,20.20
2023-05-04T11:17:15.982Z,20.20
2023-05-04T11:19:53.928Z,20.00
2023-05-04T11:22:21.093Z,20.20
2023-05-04T11:24:48.979Z,20.30
2023-05-04T11:27:25.687Z,20.30
2023-05-04T11:29:53.708Z,20.30
2023-05-04T11:32:20.658Z,20.20
2023-05-04T11:34:47.675Z,20.20
2023-05-04T11:37:14.635Z,20.20
2023-05-04T11:39:41.548Z,20.10
2023-05-04T11:42:09.361Z,20.10
2023-05-04T11:44:37.247Z,20.00
2023-05-04T11:47:04.475Z,20.00
2023-05-04T11:49:32.563Z,20.00
2023-05-04T11:52:09.494Z,20.00
2023-05-04T11:54:37.444Z,19.90
2023-05-04T11:57:05.007Z,19.90
2023-05-04T11:59:31.944Z,19.90
2023-05-04T12:01:58.983Z,19.90
2023-05-04T12:04:30.834Z,20.00
2023-05-04T12:06:59.026Z,20.00
2023-05-04T12:09:27.979Z,19.80
2023-05-04T12:11:58.071Z,19.70
2023-05-04T12:14:28.385Z,19.90
2023-05-04T12:16:56.162Z,20.00
2023-05-04T12:19:23.187Z,20.10
2023-05-04T12:21:53.358Z,20.10
2023-05-04T12:24:24.238Z,20.20
2023-05-04T12:26:51.385Z,20.10
2023-05-04T12:29:18.428Z,20.10
2023-05-04T12:31:45.917Z,20.20
2023-05-04T12:34:13.228Z,20.60
2023-05-04T12:36:40.738Z,20.20
2023-05-04T12:39:08.384Z,20.30
2023-05-04T12:41:35.672Z,20.40
2023-05-04T12:44:03.195Z,20.30
2023-05-04T12:46:31.030Z,20.40
2023-05-04T12:48:58.614Z,20.40
2023-05-04T12:51:26.301Z,20.40
2023-05-04T12:53:53.586Z,21.30
2023-05-04T12:56:21.064Z,20.40
2023-05-04T12:58:48.172Z,20.40
2023-05-04T13:01:15.271Z,20.30
2023-05-04T13:03:42.681Z,20.50
2023-05-04T13:06:09.993Z,20.70
2023-05-04T13:08:36.956Z,20.80
2023-05-04T13:11:04.048Z,21.00
2023-05-04T13:13:31.020Z,21.60
2023-05-04T13:15:58.128Z,21.40
2023-05-04T13:18:28.060Z,21.60
2023-05-04T13:20:57.960Z,22.00
2023-05-04T13:23:25.035Z,22.10
2023-05-04T13:25:52.350Z,22.20
2023-05-04T13:28:19.338Z,22.30
2023-05-04T13:30:46.600Z,22.30
2023-05-04T13:33:28.155Z,22.30
2023-05-04T13:35:58.133Z,22.30
2023-05-04T13:38:25.555Z,22.00
2023-05-04T13:40:52.490Z,21.90
2023-05-04T13:43:19.517Z,21.80
2023-05-04T13:45:46.490Z,21.40
2023-05-04T13:48:13.354Z,21.70
2023-05-04T13:50:40.339Z,21.90
2023-05-04T13:53:07.270Z,22.20
2023-05-04T13:55:34.380Z,22.20
2023-05-04T13:58:01.284Z,22.40
2023-05-04T14:00:28.267Z,22.30
2023-05-04T14:02:55.412Z,22.40
2023-05-04T14:05:22.574Z,22.10
2023-05-04T14:07:49.636Z,21.90
2023-05-04T14:10:16.531Z,21.90
2023-05-04T14:12:43.446Z,21.90
2023-05-04T14:15:10.606Z,21.90
2023-05-04T14:17:39.756Z,22.00
2023-05-04T14:20:07.172Z,22.00
2023-05-04T14:22:36.425Z,21.80
2023-05-04T14:25:05.965Z,21.90
2023-05-04T14:27:36.238Z,21.70
2023-05-04T14:30:07.013Z,21.90
2023-05-04T14:32:34.027Z,22.00
2023-05-04T14:35:06.641Z,21.90
2023-05-04T14:37:35.850Z,21.90
2023-05-04T14:40:06.946Z,21.60
2023-05-04T14:42:34.134Z,21.70
2023-05-04T14:45:01.238Z,21.90
2023-05-04T14:47:28.946Z,22.00
2023-05-04T14:49:56.181Z,21.90
2023-05-04T14:52:23.639Z,21.80
2023-05-04T14:54:50.845Z,21.50
2023-05-04T14:57:18.504Z,21.40
2023-05-04T14:59:48.034Z,20.50
2023-05-04T15:02:16.388Z,21.30
2023-05-04T15:04:43.261Z,20.80
2023-05-04T15:07:10.897Z,21.30
2023-05-04T15:09:39.203Z,21.30
2023-05-04T15:12:06.470Z,21.30
2023-05-04T15:14:33.920Z,21.30
2023-05-04T15:17:01.245Z,21.30
2023-05-04T15:19:28.150Z,21.40
2023-05-04T15:21:55.577Z,21.40
2023-05-04T15:24:22.503Z,21.30
2023-05-04T15:26:49.553Z,21.50
2023-05-04T15:29:16.702Z,21.70
2023-05-04T15:31:43.792Z,21.70
2023-05-04T15:34:10.882Z,21.60
2023-05-04T15:36:37.770Z,21.50
2023-05-04T15:39:05.836Z,21.50
2023-05-04T15:41:32.720Z,21.30
2023-05-04T15:43:59.873Z,21.50
2023-05-04T15:46:26.972Z,21.30
2023-05-04T15:48:54.644Z,21.50
2023-05-04T15:51:22.885Z,21.30
2023-05-04T15:53:49.855Z,21.30
2023-05-04T15:56:16.918Z,21.30
2023-05-04T15:58:44.675Z,21.10
2023-05-04T16:01:14.831Z,21.20
2023-05-04T16:03:45.130Z,21.20
2023-05-04T16:06:12.816Z,21.00
2023-05-04T16:08:39.940Z,21.00
2023-05-04T16:11:08.069Z,20.80
2023-05-04T16:13:35.483Z,20.60
2023-05-04T16:16:02.472Z,20.60
2023-05-04T16:18:29.468Z,20.60
2023-05-04T16:20:56.462Z,20.70
2023-05-04T16:23:23.462Z,20.80
2023-05-04T16:25:50.419Z,20.80
2023-05-04T16:28:17.377Z,20.60
2023-05-04T16:30:45.711Z,20.70
2023-05-04T16:33:14.934Z,20.60
2023-05-04T16:35:41.833Z,20.50
2023-05-04T16:38:08.707Z,20.40
2023-05-04T16:40:35.791Z,20.40
2023-05-04T16:43:02.811Z,20.50
2023-05-04T16:45:31.913Z,20.30
2023-05-04T16:47:59.388Z,20.40
2023-05-04T16:50:26.414Z,20.10
2023-05-04T16:52:53.558Z,20.10
2023-05-04T16:55:21.078Z,20.10
2023-05-04T16:57:48.493Z,20.10
2023-05-04T17:00:15.749Z,20.00
2023-05-04T17:02:42.821Z,20.00
2023-05-04T17:05:10.551Z,20.00
2023-05-04T17:07:39.775Z,19.90
2023-05-04T17:10:08.156Z,19.70
2023-05-04T17:12:36.195Z,19.80
2023-05-04T17:15:03.661Z,19.70
2023-05-04T17:17:30.983Z,19.70
2023-05-04T17:19:58.269Z,19.60
2023-05-04T17:22:25.543Z,19.50
2023-05-04T17:24:52.550Z,19.30
2023-05-04T17:27:19.503Z,19.30
2023-05-04T17:29:46.585Z,19.20
2023-05-04T17:32:13.606Z,19.10
2023-05-04T17:34:40.579Z,18.90
2023-05-04T17:37:07.535Z,18.90
2023-05-04T17:39:34.480Z,18.80
2023-05-04T17:42:01.845Z,18.80
2023-05-04T17:44:29.918Z,18.70
2023-05-04T17:46:56.905Z,18.70
2023-05-04T17:49:23.837Z,18.60
2023-05-04T17:51:51.094Z,18.50
2023-05-04T17:54:17.996Z,18.50
2023-05-04T17:56:44.900Z,18.40
2023-05-04T17:59:11.916Z,18.40
2023-05-04T18:01:38.988Z,18.30
2023-05-04T18:04:06.076Z,18.30
2023-05-04T18:06:33.188Z,18.20
2023-05-04T18:09:00.489Z,18.20
2023-05-04T18:11:27.576Z,18.10
2023-05-04T18:13:56.545Z,18.10
2023-05-04T18:16:26.981Z,18.10
2023-05-04T18:18:54.212Z,18.10
2023-05-04T18:21:21.519Z,18.00
2023-05-04T18:23:48.659Z,18.00
2023-05-04T18:26:22.884Z,18.00
2023-05-04T18:28:50.333Z,17.90
2023-05-04T18:31:17.613Z,17.90
2023-05-04T18:33:45.203Z,17.90
2023-05-04T18:36:12.586Z,17.80
2023-05-04T18:38:39.870Z,17.80
2023-05-04T18:41:07.164Z,17.70
2023-05-04T18:43:34.452Z,17.70
2023-05-04T18:46:07.896Z,17.60
2023-05-04T18:48:35.100Z,17.60
2023-05-04T18:51:03.164Z,17.50
2023-05-04T18:53:31.116Z,17.50
2023-05-04T18:56:01.856Z,17.40
2023-05-04T18:58:31.159Z,18.20
2023-05-04T19:00:58.716Z,17.30
2023-05-04T19:03:26.901Z,17.30
2023-05-04T19:05:55.337Z,17.20
2023-05-04T19:08:22.536Z,17.10
2023-05-04T19:10:49.964Z,17.10
2023-05-04T19:13:17.088Z,17.10
2023-05-04T19:15:44.637Z,17.10
2023-05-04T19:18:12.083Z,17.00
2023-05-04T19:20:39.556Z,17.00
2023-05-04T19:23:06.738Z,17.00
2023-05-04T19:25:35.079Z,17.00
2023-05-04T19:28:09.359Z,17.50
2023-05-04T19:30:37.147Z,16.90
2023-05-04T19:33:05.205Z,16.80
2023-05-04T19:35:32.319Z,16.10
2023-05-04T19:38:01.439Z,16.70
2023-05-04T19:40:28.592Z,16.50
2023-05-04T19:42:55.801Z,16.70
2023-05-04T19:45:23.429Z,16.90
2023-05-04T19:47:51.003Z,16.60
2023-05-04T19:50:18.327Z,16.50
2023-05-04T19:52:45.655Z,16.50
2023-05-04T19:55:12.928Z,16.50
2023-05-04T19:57:39.961Z,16.50
2023-05-04T20:00:09.921Z,16.50
2023-05-04T20:02:40.505Z,16.50
2023-05-04T20:05:07.959Z,16.50
2023-05-04T20:07:35.003Z,17.60
2023-05-04T20:10:02.241Z,16.50
2023-05-04T20:12:29.607Z,16.50
2023-05-04T20:14:56.725Z,16.50
2023-05-04T20:17:26.849Z,16.50
2023-05-04T20:19:54.129Z,16.50
2023-05-04T20:22:21.201Z,16.50
2023-05-04T20:24:48.376Z,16.50
2023-05-04T20:27:15.417Z,16.40
2023-05-04T20:29:42.725Z,16.20
2023-05-04T20:32:10.941Z,16.00
2023-05-04T20:34:39.819Z,16.10
2023-05-04T20:37:07.352Z,16.40
2023-05-04T20:39:34.582Z,16.00
2023-05-04T20:42:01.731Z,16.20
2023-05-04T20:44:28.919Z,16.30
2023-05-04T20:46:56.370Z,16.30
2023-05-04T20:49:23.622Z,17.00
2023-05-04T20:51:50.683Z,16.40
2023-05-04T20:54:17.929Z,16.40
2023-05-04T20:56:44.864Z,16.40
2023-05-04T20:59:11.927Z,16.40
2023-05-04T21:01:38.972Z,16.30
2023-05-04T21:04:06.176Z,16.30
2023-05-04T21:06:33.335Z,16.40
2023-05-04T21:09:02.126Z,16.40
2023-05-04T21:11:29.088Z,16.50
2023-05-04T21:13:56.070Z,16.40
2023-05-04T21:16:23.367Z,16.30
2023-05-04T21:18:50.734Z,16.30
2023-05-04T21:21:17.838Z,16.20
2023-05-04T21:23:44.947Z,16.20
2023-05-04T21:26:12.607Z,16.20
2023-05-04T21:28:44.156Z,16.20
2023-05-04T21:31:11.407Z,16.10
2023-05-04T21:33:38.434Z,16.10
2023-05-04T21:36:14.862Z,16.10
2023-05-04T21:38:41.959Z,16.10
2023-05-04T21:41:12.704Z,16.00
2023-05-04T21:43:39.732Z,16.00
2023-05-04T21:46:09.705Z,15.90
2023-05-04T21:48:36.709Z,15.90
2023-05-04T21:51:04.911Z,15.80
2023-05-04T21:53:34.873Z,15.80
2023-05-04T21:56:11.097Z,15.80
2023-05-04T21:58:42.596Z,15.90
2023-05-04T22:01:09.978Z,15.90
2023-05-04T22:03:37.138Z,15.80
2023-05-04T22:06:04.196Z,15.70
2023-05-04T22:08:31.338Z,15.80
2023-05-04T22:10:58.862Z,15.80
2023-05-04T22:13:26.168Z,15.60
2023-05-04T22:15:56.218Z,15.50
2023-05-04T22:18:23.624Z,15.50
2023-05-04T22:20:50.945Z,15.40
2023-05-04T22:23:17.995Z,15.50
2023-05-04T22:25:44.943Z,15.40
2023-05-04T22:28:11.962Z,15.50
2023-05-04T22:30:39.246Z,15.40
2023-05-04T22:33:06.361Z,15.30
2023-05-04T22:35:33.414Z,15.30
2023-05-04T22:38:00.328Z,15.20
2023-05-04T22:40:27.429Z,15.30
2023-05-04T22:42:54.302Z,15.10
2023-05-04T22:45:21.296Z,15.20
2023-05-04T22:47:49.780Z,15.10
2023-05-04T22:50:17.959Z,15.00
2023-05-04T22:52:44.917Z,15.10
2023-05-04T22:55:12.194Z,15.00
2023-05-04T22:57:39.104Z,15.00
2023-05-04T23:00:07.984Z,15.00
2023-05-04T23:02:35.537Z,15.10
2023-05-04T23:05:02.574Z,15.10
2023-05-04T23:07:29.788Z,15.00
2023-05-04T23:09:56.817Z,15.10
2023-05-04T23:12:25.675Z,15.00
2023-05-04T23:14:52.847Z,14.80
2023-05-04T23:17:19.952Z,14.90
2023-05-04T23:19:47.378Z,14.80
2023-05-04T23:22:14.690Z,14.90
2023-05-04T23:24:42.483Z,14.90
2023-05-04T23:27:09.983Z,14.40
2023-05-04T23:29:36.973Z,14.80
2023-05-04T23:32:04.114Z,14.80
2023-05-04T23:34:33.400Z,14.70
2023-05-04T23:37:01.734Z,14.60
2023-05-04T23:39:28.670Z,13.30
2023-05-04T23:41:55.600Z,14.60
2023-05-04T23:44:22.815Z,14.60
2023-05-04T23:46:49.791Z,14.60
2023-05-04T23:49:16.945Z,14.50
2023-05-04T23:51:43.928Z,14.50
2023-05-04T23:54:11.062Z,14.60
2023-05-04T23:56:38.017Z,14.50
2023-05-04T23:59:04.995Z,14.50
